Time;durP1;ratioP1;P1;durP2;ratioP2;P2;SDS_P1;SDS_P2;PMS_P1;PMS_P2;Temp;Humidity;BMP_temperature;BMP_pressure;BME280_temperature;BME280_humidity;BME280_pressure;Samples;Min_cycle;Max_cycle;Signal;HPM_P1;HPM_P2
2022/02/27 00:00:16;;;;;;;10.93;8.30;;;2.80;99.90;;;;;;5055157;28;20474;-70
2022/02/27 00:02:44;;;;;;;12.23;8.67;;;2.80;99.90;;;;;;5055570;28;20466;-70
2022/02/27 00:05:12;;;;;;;17.67;10.23;;;2.80;99.90;;;;;;5055054;28;20459;-69
2022/02/27 00:07:39;;;;;;;10.80;8.40;;;2.80;99.90;;;;;;5055527;28;20843;-70
2022/02/27 00:10:07;;;;;;;14.20;8.60;;;2.80;99.90;;;;;;5055353;28;20466;-70
2022/02/27 00:12:33;;;;;;;13.23;8.53;;;2.80;99.90;;;;;;5055009;28;20465;-70
2022/02/27 00:15:00;;;;;;;11.03;8.20;;;2.70;99.90;;;;;;5056172;28;20469;-69
2022/02/27 00:17:27;;;;;;;11.53;8.13;;;2.80;99.90;;;;;;5054965;28;20502;-70
2022/02/27 00:19:55;;;;;;;19.40;8.20;;;2.70;99.90;;;;;;5054806;28;20459;-70
2022/02/27 00:22:22;;;;;;;10.53;7.83;;;2.70;99.90;;;;;;5055051;28;20459;-70
2022/02/27 00:24:48;;;;;;;12.20;7.53;;;2.80;99.90;;;;;;5055122;28;20467;-70
2022/02/27 00:27:15;;;;;;;16.13;8.40;;;2.70;99.90;;;;;;5055380;28;20466;-69
2022/02/27 00:29:42;;;;;;;14.43;8.50;;;2.70;99.90;;;;;;5054968;28;20505;-70
2022/02/27 00:32:09;;;;;;;11.70;7.80;;;2.80;99.90;;;;;;5054702;28;20470;-71
2022/02/27 00:34:36;;;;;;;12.87;8.27;;;2.80;99.90;;;;;;5055121;28;20466;-70
2022/02/27 00:37:04;;;;;;;10.73;7.20;;;2.80;99.90;;;;;;5054853;28;20553;-69
2022/02/27 00:39:31;;;;;;;12.70;8.60;;;2.80;99.90;;;;;;5054848;28;20477;-70
2022/02/27 00:41:58;;;;;;;14.23;7.20;;;2.80;99.90;;;;;;5054646;28;20974;-70
2022/02/27 00:44:24;;;;;;;12.17;8.20;;;2.80;99.90;;;;;;5054752;28;20459;-70
2022/02/27 00:46:51;;;;;;;18.33;8.80;;;2.80;99.90;;;;;;5054822;28;20464;-70
2022/02/27 00:49:18;;;;;;;13.17;8.60;;;2.80;99.90;;;;;;5054757;28;20470;-70
2022/02/27 00:51:45;;;;;;;30.30;18.20;;;2.70;99.90;;;;;;5054694;28;20470;-70
2022/02/27 00:54:13;;;;;;;16.03;9.80;;;2.70;99.90;;;;;;5054113;28;20982;-70
2022/02/27 00:56:40;;;;;;;12.27;9.37;;;2.60;99.90;;;;;;5054387;28;20486;-70
2022/02/27 00:59:07;;;;;;;20.33;11.20;;;2.60;99.90;;;;;;5055372;28;20934;-70
2022/02/27 01:01:34;;;;;;;16.13;10.30;;;2.60;99.90;;;;;;5054688;28;20525;-70
2022/02/27 01:04:00;;;;;;;13.93;9.33;;;2.60;99.90;;;;;;5054361;28;20846;-69
2022/02/27 01:06:29;;;;;;;13.90;10.10;;;2.50;99.90;;;;;;5054401;28;20454;-70
2022/02/27 01:08:58;;;;;;;15.90;10.90;;;2.50;99.90;;;;;;5054696;28;20903;-69
2022/02/27 01:11:27;;;;;;;14.60;10.60;;;2.50;99.90;;;;;;5054702;28;20469;-69
2022/02/27 01:13:56;;;;;;;13.17;10.03;;;2.50;99.90;;;;;;5054631;28;20570;-70
2022/02/27 01:16:23;;;;;;;16.37;8.67;;;2.40;99.90;;;;;;5054316;28;20486;-69
2022/02/27 01:18:50;;;;;;;15.67;8.60;;;2.50;99.90;;;;;;5055299;28;20537;-70
2022/02/27 01:21:17;;;;;;;11.53;8.47;;;2.50;99.90;;;;;;5056269;28;20459;-69
2022/02/27 01:23:44;;;;;;;11.67;8.40;;;2.50;99.90;;;;;;5056513;28;20516;-71
2022/02/27 01:26:11;;;;;;;19.83;8.70;;;2.50;99.90;;;;;;5055182;28;20460;-69
2022/02/27 01:28:40;;;;;;;12.43;7.90;;;2.40;99.90;;;;;;5054613;28;20463;-70
2022/02/27 01:31:08;;;;;;;14.57;8.93;;;2.40;99.90;;;;;;5054798;28;20746;-71
2022/02/27 01:33:35;;;;;;;17.60;9.13;;;2.30;99.90;;;;;;5054594;28;20455;-71
2022/02/27 01:36:02;;;;;;;17.43;8.80;;;2.30;99.90;;;;;;5054502;28;20490;-70
2022/02/27 01:38:29;;;;;;;11.97;7.70;;;2.20;99.90;;;;;;5054450;28;20451;-70
2022/02/27 01:40:55;;;;;;;11.73;8.20;;;2.20;99.90;;;;;;5054447;28;20486;-70
2022/02/27 01:43:25;;;;;;;17.77;9.27;;;2.20;99.90;;;;;;5054227;28;20450;-70
2022/02/27 01:45:53;;;;;;;11.43;8.73;;;2.20;99.90;;;;;;5054461;28;20467;-70
2022/02/27 01:48:20;;;;;;;10.17;8.53;;;2.10;99.90;;;;;;5054282;28;20829;-70
2022/02/27 01:50:46;;;;;;;15.97;10.10;;;2.10;99.90;;;;;;5054347;28;20460;-70
2022/02/27 01:53:13;;;;;;;16.50;9.30;;;2.10;99.90;;;;;;5054513;28;20516;-70
2022/02/27 01:55:40;;;;;;;13.50;8.97;;;2.10;99.90;;;;;;5054455;28;20907;-70
2022/02/27 01:58:07;;;;;;;11.60;8.90;;;2.00;99.90;;;;;;5054314;28;20463;-70
2022/02/27 02:00:34;;;;;;;16.37;9.50;;;2.00;99.90;;;;;;5055182;28;20466;-70
2022/02/27 02:03:02;;;;;;;14.57;9.80;;;2.00;99.90;;;;;;5054561;28;20513;-70
2022/02/27 02:05:29;;;;;;;13.83;9.50;;;2.00;99.90;;;;;;5057323;28;20462;-70
2022/02/27 02:07:55;;;;;;;10.77;9.67;;;2.00;99.90;;;;;;5057770;28;20459;-70
2022/02/27 02:10:22;;;;;;;14.93;9.47;;;2.00;99.90;;;;;;5057732;28;20463;-70
2022/02/27 02:12:49;;;;;;;17.70;10.27;;;2.00;99.90;;;;;;5057578;28;20516;-69
2022/02/27 02:15:15;;;;;;;14.40;9.70;;;1.90;99.90;;;;;;5058375;28;20776;-70
2022/02/27 02:17:44;;;;;;;18.60;10.60;;;1.90;99.90;;;;;;5057158;28;20974;-70
2022/02/27 02:20:15;;;;;;;14.20;10.17;;;1.90;99.90;;;;;;5057289;28;20629;-70
2022/02/27 02:22:42;;;;;;;14.03;9.53;;;1.90;99.90;;;;;;5057626;28;20439;-69
2022/02/27 02:25:09;;;;;;;14.20;9.43;;;1.80;99.90;;;;;;5057551;28;20798;-69
2022/02/27 02:27:36;;;;;;;15.27;10.47;;;1.90;99.90;;;;;;5058503;28;20462;-70
2022/02/27 02:30:03;;;;;;;15.33;9.70;;;1.80;99.90;;;;;;5057900;28;20459;-70
2022/02/27 02:32:30;;;;;;;13.77;9.80;;;1.80;99.90;;;;;;5057788;28;20562;-69
2022/02/27 02:34:57;;;;;;;15.37;10.40;;;1.80;99.90;;;;;;5058138;28;20454;-69
2022/02/27 02:37:25;;;;;;;13.80;9.80;;;1.70;99.90;;;;;;5057402;28;20533;-70
2022/02/27 02:39:53;;;;;;;18.87;10.60;;;1.70;99.90;;;;;;5057438;28;20517;-69
2022/02/27 02:42:20;;;;;;;17.87;10.47;;;1.70;99.90;;;;;;5057055;28;20522;-70
2022/02/27 02:44:47;;;;;;;13.77;10.47;;;1.60;99.90;;;;;;5056846;28;20521;-70
2022/02/27 02:47:13;;;;;;;13.77;10.17;;;1.60;99.90;;;;;;5056765;28;20485;-70
2022/02/27 02:49:40;;;;;;;15.23;10.80;;;1.50;99.90;;;;;;5057345;28;20810;-69
2022/02/27 02:52:08;;;;;;;13.10;9.50;;;1.50;99.90;;;;;;5056639;28;20455;-69
2022/02/27 02:54:36;;;;;;;17.23;10.63;;;1.50;99.90;;;;;;5057181;28;20455;-69
2022/02/27 02:57:03;;;;;;;12.90;10.20;;;1.40;99.90;;;;;;5056720;28;20830;-70
2022/02/27 02:59:30;;;;;;;14.33;11.20;;;1.40;99.90;;;;;;5056795;28;20521;-69
2022/02/27 03:01:57;;;;;;;19.17;10.50;;;1.40;99.90;;;;;;5056941;28;20553;-70
2022/02/27 03:04:24;;;;;;;18.33;10.93;;;1.40;99.90;;;;;;5056616;28;20455;-69
2022/02/27 03:06:50;;;;;;;16.90;9.30;;;1.40;99.90;;;;;;5056718;28;20447;-69
2022/02/27 03:09:18;;;;;;;13.40;10.20;;;1.30;99.90;;;;;;5056610;28;20933;-70
2022/02/27 03:11:47;;;;;;;15.03;11.00;;;1.30;99.90;;;;;;5056546;28;20482;-69
2022/02/27 03:14:13;;;;;;;13.53;10.20;;;1.30;99.90;;;;;;5057141;28;20455;-70
2022/02/27 03:16:40;;;;;;;14.93;11.10;;;1.30;99.90;;;;;;5056274;28;20494;-69
2022/02/27 03:19:07;;;;;;;14.40;9.40;;;1.20;99.90;;;;;;5056858;28;20459;-69
2022/02/27 03:21:33;;;;;;;15.47;10.20;;;1.20;99.90;;;;;;5056687;28;20778;-70
2022/02/27 03:24:00;;;;;;;13.43;9.63;;;1.20;99.90;;;;;;5059292;28;20466;-69
2022/02/27 03:26:27;;;;;;;15.50;9.20;;;1.20;99.90;;;;;;5059093;28;20520;-69
2022/02/27 03:28:55;;;;;;;14.67;9.60;;;1.20;99.90;;;;;;5058414;28;20458;-69
2022/02/27 03:31:22;;;;;;;13.60;9.57;;;1.20;99.90;;;;;;5056400;28;20459;-70
2022/02/27 03:33:49;;;;;;;13.77;9.50;;;1.20;99.90;;;;;;5056576;28;20455;-69
2022/02/27 03:36:16;;;;;;;13.63;9.30;;;1.30;99.90;;;;;;5056927;28;20467;-69
2022/02/27 03:38:43;;;;;;;20.30;12.77;;;1.30;99.90;;;;;;5057058;28;20831;-69
2022/02/27 03:41:10;;;;;;;12.07;9.60;;;1.30;99.90;;;;;;5056082;28;20487;-68
2022/02/27 03:43:37;;;;;;;13.93;9.50;;;1.30;99.90;;;;;;5056064;28;20455;-69
2022/02/27 03:46:05;;;;;;;14.27;9.03;;;1.30;99.90;;;;;;5055797;28;20454;-69
2022/02/27 03:48:31;;;;;;;13.57;9.47;;;1.20;99.90;;;;;;5056184;28;20456;-69
2022/02/27 03:50:58;;;;;;;13.47;9.50;;;1.20;99.90;;;;;;5057515;28;20451;-68
2022/02/27 03:53:25;;;;;;;11.63;8.97;;;1.20;99.90;;;;;;5056066;28;20451;-70
2022/02/27 03:55:52;;;;;;;13.93;9.70;;;1.20;99.90;;;;;;5055830;28;20516;-70
2022/02/27 03:58:19;;;;;;;16.17;10.07;;;1.20;99.90;;;;;;5055728;28;20495;-69
2022/02/27 04:00:46;;;;;;;14.30;9.07;;;1.20;99.90;;;;;;5055391;28;20459;-69
2022/02/27 04:03:14;;;;;;;14.97;8.60;;;1.20;99.90;;;;;;5055408;28;20520;-68
2022/02/27 04:05:41;;;;;;;12.30;9.00;;;1.20;99.90;;;;;;5055369;28;20558;-69
2022/02/27 04:08:08;;;;;;;12.80;8.63;;;1.20;99.90;;;;;;5055715;28;20514;-69
2022/02/27 04:10:35;;;;;;;14.30;8.80;;;1.20;99.90;;;;;;5055531;28;20455;-70
2022/02/27 04:13:02;;;;;;;14.57;9.53;;;1.20;99.90;;;;;;5055502;28;20459;-70
2022/02/27 04:15:28;;;;;;;15.53;9.20;;;1.20;99.90;;;;;;5055212;28;20926;-68
2022/02/27 04:17:55;;;;;;;15.53;9.60;;;1.20;99.90;;;;;;5055134;28;20994;-70
2022/02/27 04:20:23;;;;;;;17.13;10.77;;;1.20;99.90;;;;;;5055738;28;20459;-68
2022/02/27 04:22:50;;;;;;;15.67;9.90;;;1.20;99.90;;;;;;5055520;28;20463;-70
2022/02/27 04:25:17;;;;;;;13.57;9.20;;;1.30;99.90;;;;;;5055950;28;20545;-69
2022/02/27 04:27:43;;;;;;;14.10;8.97;;;1.30;99.90;;;;;;5054579;28;20456;-69
2022/02/27 04:30:10;;;;;;;12.07;9.00;;;1.30;99.90;;;;;;5055801;28;20451;-70
2022/02/27 04:32:37;;;;;;;15.23;9.30;;;1.30;99.90;;;;;;5055527;28;20466;-69
2022/02/27 04:35:04;;;;;;;12.47;8.47;;;1.30;99.90;;;;;;5055616;28;20924;-70
2022/02/27 04:37:32;;;;;;;11.40;8.47;;;1.30;99.90;;;;;;5055505;28;20478;-69
2022/02/27 04:39:59;;;;;;;15.77;8.90;;;1.40;99.90;;;;;;5055624;28;20800;-69
2022/02/27 04:42:26;;;;;;;15.70;9.27;;;1.40;99.90;;;;;;5055052;28;20487;-70
2022/02/27 04:44:53;;;;;;;13.53;9.37;;;1.30;99.90;;;;;;5055713;28;20459;-70
2022/02/27 04:47:20;;;;;;;12.30;8.77;;;1.40;99.90;;;;;;5055408;28;20451;-70
2022/02/27 04:49:48;;;;;;;13.00;9.83;;;1.40;99.90;;;;;;5055555;28;20465;-70
2022/02/27 04:52:15;;;;;;;17.13;10.77;;;1.30;99.90;;;;;;5055007;28;20459;-69
2022/02/27 04:54:43;;;;;;;16.73;10.70;;;1.30;99.90;;;;;;5055084;28;20470;-70
2022/02/27 04:57:10;;;;;;;15.63;10.00;;;1.30;99.90;;;;;;5054923;28;20482;-69
2022/02/27 04:59:37;;;;;;;14.60;10.20;;;1.20;99.90;;;;;;5054371;28;20518;-69
2022/02/27 05:02:05;;;;;;;16.47;10.83;;;1.20;99.90;;;;;;5054681;28;20470;-69
2022/02/27 05:04:33;;;;;;;16.10;10.43;;;1.10;99.90;;;;;;5055133;28;20459;-70
2022/02/27 05:07:00;;;;;;;14.03;9.50;;;1.10;99.90;;;;;;5055010;28;20581;-69
2022/02/27 05:09:27;;;;;;;12.77;8.70;;;1.10;99.90;;;;;;5054679;28;20920;-69
2022/02/27 05:11:55;;;;;;;11.87;10.13;;;1.00;99.90;;;;;;5055229;28;20459;-69
2022/02/27 05:14:21;;;;;;;16.60;9.90;;;1.00;99.90;;;;;;5054767;28;20924;-70
2022/02/27 05:16:48;;;;;;;17.97;9.03;;;1.00;99.90;;;;;;5054568;28;20463;-69
2022/02/27 05:19:15;;;;;;;13.83;9.83;;;0.90;99.90;;;;;;5055156;28;20469;-69
2022/02/27 05:21:42;;;;;;;14.73;9.30;;;0.90;99.90;;;;;;5054669;28;20451;-68
2022/02/27 05:24:10;;;;;;;16.60;9.80;;;0.80;99.90;;;;;;5054572;28;20451;-69
2022/02/27 05:26:37;;;;;;;15.33;9.40;;;0.80;99.90;;;;;;5054884;28;20783;-70
2022/02/27 05:29:05;;;;;;;22.47;9.17;;;0.80;99.90;;;;;;5054756;28;20447;-69
2022/02/27 05:31:31;;;;;;;13.30;9.10;;;0.80;99.90;;;;;;5054519;28;20813;-69
2022/02/27 05:33:58;;;;;;;15.50;9.73;;;0.80;99.90;;;;;;5054864;28;20451;-70
2022/02/27 05:36:25;;;;;;;14.87;9.30;;;0.80;99.90;;;;;;5055407;28;20810;-69
2022/02/27 05:38:52;;;;;;;15.03;8.87;;;0.80;99.90;;;;;;5055659;28;20557;-69
2022/02/27 05:41:19;;;;;;;12.37;8.60;;;0.80;99.90;;;;;;5058443;28;20490;-69
2022/02/27 05:43:45;;;;;;;15.07;9.10;;;0.80;99.90;;;;;;5059634;28;20470;-69
2022/02/27 05:46:13;;;;;;;11.90;9.40;;;0.80;99.90;;;;;;5059320;28;20465;-68
2022/02/27 05:48:40;;;;;;;13.40;9.67;;;0.80;99.90;;;;;;5059060;28;20455;-69
2022/02/27 05:51:07;;;;;;;18.53;10.60;;;0.80;99.90;;;;;;5059202;28;20469;-69
2022/02/27 05:53:34;;;;;;;17.20;10.37;;;0.80;99.90;;;;;;5059255;28;20931;-70
2022/02/27 05:56:00;;;;;;;15.77;9.37;;;0.80;99.90;;;;;;5059960;28;20473;-68
2022/02/27 05:58:31;;;;;;;13.57;8.43;;;0.80;99.90;;;;;;5063280;28;20493;-70
2022/02/27 06:00:58;;;;;;;16.97;8.87;;;0.80;99.90;;;;;;5061149;28;20440;-69
2022/02/27 06:03:26;;;;;;;16.57;9.97;;;0.80;99.90;;;;;;5058960;28;20466;-70
2022/02/27 06:05:53;;;;;;;14.20;8.97;;;0.80;99.90;;;;;;5058854;28;20467;-69
2022/02/27 06:08:20;;;;;;;12.67;8.70;;;0.80;99.90;;;;;;5063600;28;20455;-69
2022/02/27 06:10:46;;;;;;;15.17;9.03;;;0.80;99.90;;;;;;5062168;28;20462;-69
2022/02/27 06:13:13;;;;;;;15.27;9.73;;;0.80;99.90;;;;;;5061546;28;20524;-69
2022/02/27 06:15:40;;;;;;;13.87;9.33;;;0.80;99.90;;;;;;5060321;28;20458;-70
2022/02/27 06:18:06;;;;;;;21.07;10.70;;;0.80;99.90;;;;;;5060471;28;20487;-70
2022/02/27 06:20:34;;;;;;;15.40;10.37;;;0.80;99.90;;;;;;5059817;28;20447;-69
2022/02/27 06:23:01;;;;;;;16.10;9.77;;;0.80;99.90;;;;;;5060154;28;20916;-69
2022/02/27 06:25:28;;;;;;;16.33;10.63;;;0.80;99.90;;;;;;5058694;28;20466;-70
2022/02/27 06:27:54;;;;;;;15.87;10.87;;;0.80;99.90;;;;;;5058000;28;20455;-70
2022/02/27 06:30:23;;;;;;;19.53;9.70;;;0.80;99.90;;;;;;5058218;28;20459;-70
2022/02/27 06:32:52;;;;;;;15.20;10.67;;;0.80;99.90;;;;;;5057529;28;20459;-69
2022/02/27 06:35:22;;;;;;;19.90;10.67;;;0.80;99.90;;;;;;5057758;28;20866;-70
2022/02/27 06:37:52;;;;;;;14.33;9.60;;;0.80;99.90;;;;;;5057115;28;20484;-68
2022/02/27 06:40:20;;;;;;;14.50;10.63;;;0.80;99.90;;;;;;5057314;28;20554;-70
2022/02/27 06:42:47;;;;;;;13.70;9.57;;;0.80;99.90;;;;;;5057315;28;20506;-69
2022/02/27 06:45:15;;;;;;;19.27;9.43;;;0.80;99.90;;;;;;5057041;28;20911;-68
2022/02/27 06:47:42;;;;;;;14.47;10.23;;;0.90;99.90;;;;;;5057540;28;20792;-69
2022/02/27 06:50:10;;;;;;;13.80;10.13;;;0.90;99.90;;;;;;5056017;28;20459;-69
2022/02/27 06:52:37;;;;;;;17.93;10.43;;;1.00;99.90;;;;;;5056937;28;20525;-69
2022/02/27 06:55:06;;;;;;;12.27;10.50;;;1.00;99.90;;;;;;5057225;28;20489;-70
2022/02/27 06:57:33;;;;;;;16.37;9.53;;;1.00;99.90;;;;;;5057058;28;20505;-70
2022/02/27 07:00:00;;;;;;;13.53;10.03;;;1.00;99.90;;;;;;5057012;28;20524;-70
2022/02/27 07:02:27;;;;;;;18.70;9.83;;;1.10;99.90;;;;;;5056915;28;20451;-70
2022/02/27 07:04:53;;;;;;;21.90;10.47;;;1.10;99.90;;;;;;5059991;28;20914;-70
2022/02/27 07:07:20;;;;;;;21.97;12.00;;;1.10;99.90;;;;;;5060175;28;20470;-69
2022/02/27 07:09:47;;;;;;;40.83;31.60;;;1.10;99.90;;;;;;5058100;28;20780;-70
2022/02/27 07:12:15;;;;;;;194.10;116.13;;;1.10;99.90;;;;;;5056716;28;20538;-70
2022/02/27 07:14:42;;;;;;;183.80;116.43;;;1.10;99.90;;;;;;5056376;28;20459;-70
2022/02/27 07:17:09;;;;;;;22.63;17.17;;;1.20;99.90;;;;;;5056840;28;20501;-69
2022/02/27 07:19:37;;;;;;;15.93;11.07;;;1.20;99.90;;;;;;5056649;28;20518;-69
2022/02/27 07:22:05;;;;;;;24.90;12.10;;;1.30;99.90;;;;;;5056618;28;20463;-69
2022/02/27 07:24:32;;;;;;;17.23;11.33;;;1.30;99.90;;;;;;5056406;28;20466;-68
2022/02/27 07:26:58;;;;;;;14.53;11.17;;;1.40;99.90;;;;;;5056248;28;20443;-68
2022/02/27 07:29:27;;;;;;;14.10;9.90;;;1.50;99.90;;;;;;5056261;28;20571;-69
2022/02/27 07:31:53;;;;;;;17.10;10.47;;;1.50;99.90;;;;;;5056105;28;20489;-69
2022/02/27 07:34:20;;;;;;;14.00;10.10;;;1.60;99.90;;;;;;5055958;28;20926;-69
2022/02/27 07:36:49;;;;;;;15.37;9.83;;;1.60;99.90;;;;;;5056160;28;20459;-69
2022/02/27 07:39:16;;;;;;;21.13;11.07;;;1.60;99.90;;;;;;5056207;28;20567;-69
2022/02/27 07:41:43;;;;;;;17.80;12.23;;;1.70;99.90;;;;;;5056202;28;20513;-70
2022/02/27 07:44:10;;;;;;;14.27;9.10;;;1.70;99.90;;;;;;5056219;28;20765;-69
2022/02/27 07:46:38;;;;;;;18.87;9.60;;;1.70;99.90;;;;;;5056069;28;20546;-70
2022/02/27 07:49:05;;;;;;;16.73;10.53;;;1.60;99.90;;;;;;5056170;28;20455;-69
2022/02/27 07:51:32;;;;;;;17.80;10.73;;;1.70;99.90;;;;;;5056355;28;20466;-69
2022/02/27 07:53:58;;;;;;;13.07;9.80;;;1.70;99.90;;;;;;5056278;28;20533;-69
2022/02/27 07:56:25;;;;;;;14.60;9.97;;;1.70;99.90;;;;;;5056105;28;20469;-70
2022/02/27 07:58:52;;;;;;;20.50;10.73;;;1.80;99.90;;;;;;5055950;28;20973;-70
2022/02/27 08:01:19;;;;;;;17.50;10.07;;;1.80;99.90;;;;;;5055679;28;20550;-69
2022/02/27 08:03:47;;;;;;;16.00;10.23;;;1.80;99.90;;;;;;5055396;28;20467;-69
2022/02/27 08:06:14;;;;;;;15.37;10.57;;;1.90;99.90;;;;;;5055503;28;20455;-69
2022/02/27 08:08:41;;;;;;;16.57;10.33;;;1.90;99.90;;;;;;5055811;28;20455;-69
2022/02/27 08:11:10;;;;;;;12.27;9.00;;;1.90;99.90;;;;;;5055581;28;20455;-69
2022/02/27 08:13:36;;;;;;;15.00;10.60;;;2.00;99.90;;;;;;5055855;28;20462;-69
2022/02/27 08:16:03;;;;;;;16.97;11.20;;;2.10;99.90;;;;;;5055920;28;20481;-70
2022/02/27 08:18:30;;;;;;;16.43;10.70;;;2.10;99.90;;;;;;5055556;28;20486;-68
2022/02/27 08:21:17;;;;;;;14.50;10.63;;;2.10;99.90;;;;;;5055965;28;20482;-71
2022/02/27 08:23:43;;;;;;;13.77;10.17;;;2.20;99.90;;;;;;5055814;28;20440;-69
2022/02/27 08:26:10;;;;;;;19.80;12.63;;;2.20;99.90;;;;;;5055610;28;20463;-71
2022/02/27 08:28:37;;;;;;;18.07;12.20;;;2.20;99.90;;;;;;5055728;28;20799;-70
2022/02/27 08:31:03;;;;;;;20.50;12.87;;;2.30;99.90;;;;;;5055079;28;20447;-71
2022/02/27 08:33:30;;;;;;;22.73;12.50;;;2.30;99.90;;;;;;5055707;28;20455;-71
2022/02/27 08:35:57;;;;;;;19.33;13.20;;;2.30;99.90;;;;;;5055264;28;20551;-70
2022/02/27 08:38:26;;;;;;;22.10;13.00;;;2.30;99.90;;;;;;5054914;28;20475;-69
2022/02/27 08:40:54;;;;;;;24.53;13.83;;;2.30;99.90;;;;;;5054832;28;20577;-70
2022/02/27 08:43:21;;;;;;;26.07;13.77;;;2.30;99.90;;;;;;5055057;28;20795;-70
2022/02/27 08:45:48;;;;;;;24.43;13.47;;;2.30;99.90;;;;;;5054803;28;20508;-69
2022/02/27 08:48:16;;;;;;;23.03;12.87;;;2.40;99.90;;;;;;5055069;28;20911;-70
2022/02/27 08:50:42;;;;;;;28.53;16.23;;;2.40;99.90;;;;;;5055022;28;20461;-70
2022/02/27 08:53:09;;;;;;;26.73;15.33;;;2.50;99.90;;;;;;5055495;28;20491;-70
2022/02/27 08:55:37;;;;;;;26.47;17.13;;;2.50;99.90;;;;;;5055618;28;20455;-70
2022/02/27 08:58:04;;;;;;;26.47;15.20;;;2.50;99.90;;;;;;5055072;28;20466;-70
2022/02/27 09:00:31;;;;;;;32.13;17.67;;;2.50;99.90;;;;;;5055147;28;20787;-70
2022/02/27 09:02:58;;;;;;;27.67;17.50;;;2.50;99.90;;;;;;5054906;28;20501;-69
2022/02/27 09:05:24;;;;;;;28.43;16.97;;;2.60;99.90;;;;;;5055273;28;20494;-72
2022/02/27 09:07:53;;;;;;;31.47;17.70;;;2.80;99.90;;;;;;5054940;28;20459;-71
2022/02/27 09:10:20;;;;;;;29.77;16.40;;;2.90;99.90;;;;;;5055463;28;20459;-70
2022/02/27 09:12:48;;;;;;;28.13;17.50;;;3.00;99.90;;;;;;5055697;28;20764;-72
2022/02/27 09:15:16;;;;;;;28.83;15.83;;;3.00;99.90;;;;;;5059346;28;20455;-71
2022/02/27 09:17:42;;;;;;;25.47;16.47;;;3.10;99.90;;;;;;5059618;28;20498;-71
2022/02/27 09:20:10;;;;;;;25.63;16.83;;;3.20;99.90;;;;;;5060585;28;20498;-72
2022/02/27 09:22:37;;;;;;;25.50;16.90;;;3.40;99.90;;;;;;5060621;28;20454;-71
2022/02/27 09:25:04;;;;;;;30.70;18.60;;;3.40;99.90;;;;;;5060826;28;20520;-71
2022/02/27 09:27:31;;;;;;;29.23;16.33;;;3.40;99.90;;;;;;5061448;28;20528;-71
2022/02/27 09:29:59;;;;;;;24.93;15.70;;;3.40;99.90;;;;;;5062023;28;20493;-71
2022/02/27 09:32:26;;;;;;;25.33;17.20;;;3.40;99.90;;;;;;5061823;28;20463;-72
2022/02/27 09:34:52;;;;;;;27.73;17.40;;;3.50;99.90;;;;;;5062233;28;20895;-72
2022/02/27 09:37:19;;;;;;;25.23;15.97;;;3.60;99.90;;;;;;5061293;28;20652;-71
2022/02/27 09:39:46;;;;;;;26.13;15.23;;;3.70;99.90;;;;;;5059137;28;20482;-71
2022/02/27 09:42:13;;;;;;;24.10;15.77;;;3.80;99.90;;;;;;5058803;28;20486;-69
2022/02/27 09:44:41;;;;;;;23.43;15.97;;;4.00;99.90;;;;;;5058700;28;20486;-72
2022/02/27 09:47:14;;;;;;;23.30;15.53;;;4.10;99.90;;;;;;5059014;28;20458;-70
2022/02/27 09:49:45;;;;;;;24.40;16.57;;;4.10;99.90;;;;;;5058588;28;20436;-70
2022/02/27 09:52:13;;;;;;;25.53;16.60;;;4.20;99.90;;;;;;5058297;28;20780;-71
2022/02/27 09:54:40;;;;;;;24.50;15.57;;;4.20;99.90;;;;;;5058488;28;20459;-69
2022/02/27 09:57:07;;;;;;;22.30;15.97;;;4.30;99.90;;;;;;5058301;28;20466;-70
2022/02/27 09:59:34;;;;;;;23.77;15.90;;;4.30;99.90;;;;;;5057893;28;20952;-69
2022/02/27 10:02:03;;;;;;;24.17;16.20;;;4.40;99.90;;;;;;5058250;28;20737;-69
2022/02/27 10:04:35;;;;;;;18.43;14.67;;;4.40;99.90;;;;;;5058060;28;20463;-71
2022/02/27 10:07:09;;;;;;;21.17;13.17;;;4.50;99.90;;;;;;5057720;28;20455;-70
2022/02/27 10:09:36;;;;;;;27.40;16.73;;;4.60;99.90;;;;;;5057820;28;20463;-70
2022/02/27 10:12:14;;;;;;;27.90;15.77;;;4.60;99.90;;;;;;5057747;28;20790;-71
2022/02/27 10:14:42;;;;;;;26.07;16.47;;;4.60;99.90;;;;;;5057904;28;20462;-70
2022/02/27 10:17:09;;;;;;;23.43;15.00;;;4.70;99.90;;;;;;5058144;28;20927;-71
2022/02/27 10:19:40;;;;;;;24.43;16.33;;;4.80;99.90;;;;;;5057996;28;20485;-71
2022/02/27 10:22:09;;;;;;;25.40;16.33;;;4.80;99.90;;;;;;5058049;28;20443;-69
2022/02/27 10:24:36;;;;;;;24.37;14.70;;;4.60;99.90;;;;;;5057281;28;20451;-69
2022/02/27 10:27:10;;;;;;;21.57;15.23;;;4.50;99.90;;;;;;5057573;28;20863;-71
2022/02/27 10:29:38;;;;;;;27.97;15.77;;;4.50;99.90;;;;;;5058229;28;20436;-70
2022/02/27 10:32:05;;;;;;;25.83;16.10;;;4.60;99.90;;;;;;5066212;28;20459;-71
2022/02/27 10:34:34;;;;;;;24.23;15.40;;;4.60;99.90;;;;;;5067124;28;20513;-71
2022/02/27 10:37:04;;;;;;;25.37;15.97;;;4.70;99.90;;;;;;5062096;28;20525;-71
2022/02/27 10:39:34;;;;;;;22.50;15.30;;;4.70;99.90;;;;;;5061059;28;20479;-72
2022/02/27 10:42:07;;;;;;;23.97;14.83;;;4.70;99.90;;;;;;5060236;28;20960;-71
2022/02/27 10:44:36;;;;;;;22.80;14.80;;;4.70;99.90;;;;;;5059624;28;20450;-68
2022/02/27 10:47:17;;;;;;;22.03;15.30;;;4.70;99.90;;;;;;5057787;28;20916;-71
2022/02/27 10:49:45;;;;;;;25.93;17.83;;;4.80;99.90;;;;;;5057623;28;20682;-69
2022/02/27 10:52:19;;;;;;;24.10;16.47;;;4.90;99.90;;;;;;5057572;28;20451;-70
2022/02/27 10:54:48;;;;;;;24.63;15.50;;;5.00;99.90;;;;;;5057427;28;20439;-70
2022/02/27 10:57:31;;;;;;;27.57;18.03;;;5.10;99.90;;;;;;5056854;28;20459;-69
2022/02/27 11:00:05;;;;;;;25.67;18.27;;;5.20;99.90;;;;;;5059583;28;20551;-73
2022/02/27 11:02:34;;;;;;;25.07;16.53;;;5.20;99.90;;;;;;5060432;28;20446;-73
2022/02/27 11:05:02;;;;;;;26.37;16.63;;;5.10;99.90;;;;;;5059439;28;20469;-73
2022/02/27 11:07:30;;;;;;;27.70;17.20;;;5.20;99.90;;;;;;5057717;28;20459;-74
2022/02/27 11:09:57;;;;;;;27.37;17.33;;;5.20;99.90;;;;;;5056862;28;20577;-73
2022/02/27 11:12:25;;;;;;;25.83;16.90;;;5.20;99.90;;;;;;5056801;28;20459;-72
2022/02/27 11:14:53;;;;;;;27.93;17.23;;;5.20;99.90;;;;;;5058304;28;20919;-74
2022/02/27 11:17:20;;;;;;;26.67;17.40;;;5.20;99.90;;;;;;5056832;28;20455;-74
2022/02/27 11:19:47;;;;;;;26.63;18.20;;;5.30;99.90;;;;;;5056978;28;20483;-74
2022/02/27 11:22:14;;;;;;;30.40;18.40;;;5.40;99.90;;;;;;5056608;28;20455;-71
2022/02/27 11:24:43;;;;;;;31.50;19.37;;;5.40;99.90;;;;;;5056384;28;20462;-74
2022/02/27 11:27:11;;;;;;;24.90;16.57;;;5.40;99.90;;;;;;5056534;28;20466;-73
2022/02/27 11:29:41;;;;;;;29.40;17.67;;;5.40;99.90;;;;;;5056299;28;20466;-74
2022/02/27 11:32:08;;;;;;;27.80;17.47;;;5.40;99.90;;;;;;5056240;28;20469;-74
2022/02/27 11:34:41;;;;;;;27.57;16.60;;;5.40;99.90;;;;;;5056575;28;20466;-73
2022/02/27 11:37:08;;;;;;;25.80;17.33;;;5.40;99.90;;;;;;5055184;28;20440;-73
2022/02/27 11:42:52;;;;;;;25.30;16.60;;;5.60;99.90;;;;;;5055812;28;20826;-71
2022/02/27 11:45:21;;;;;;;20.80;15.40;;;5.80;99.90;;;;;;5057329;28;20539;-70
2022/02/27 11:47:49;;;;;;;22.60;15.20;;;5.90;99.90;;;;;;5055676;28;20514;-70
2022/02/27 11:50:25;;;;;;;21.30;13.90;;;6.00;99.90;;;;;;5055534;28;20501;-71
2022/02/27 11:52:51;;;;;;;20.00;13.67;;;6.20;99.90;;;;;;5056232;28;20451;-70
2022/02/27 11:55:40;;;;;;;18.67;13.67;;;6.30;99.90;;;;;;5055511;28;20458;-70
2022/02/27 11:58:08;;;;;;;22.23;14.60;;;6.40;99.90;;;;;;5055512;28;20505;-69
2022/02/27 12:00:39;;;;;;;19.73;13.27;;;6.50;99.90;;;;;;5055372;28;20555;-69
2022/02/27 12:03:40;;;;;;;20.53;12.97;;;6.60;99.90;;;;;;5056007;28;20455;-70
2022/02/27 12:06:08;;;;;;;16.10;12.70;;;6.80;99.90;;;;;;5055836;28;20463;-69
2022/02/27 12:08:43;;;;;;;18.97;13.10;;;6.90;99.90;;;;;;5055543;28;20459;-70
2022/02/27 12:11:38;;;;;;;21.87;15.50;;;6.90;99.90;;;;;;5055620;28;20786;-71
2022/02/27 12:14:07;;;;;;;22.63;14.43;;;6.70;99.90;;;;;;5055204;28;20450;-70
2022/02/27 12:16:36;;;;;;;24.90;15.37;;;6.60;99.90;;;;;;5055180;28;20780;-70
2022/02/27 12:19:04;;;;;;;22.10;14.83;;;6.70;99.90;;;;;;5055165;28;20888;-70
2022/02/27 12:21:37;;;;;;;23.63;17.07;;;6.80;99.90;;;;;;5054908;28;20827;-70
2022/02/27 12:24:11;;;;;;;21.27;14.47;;;6.90;99.90;;;;;;5055355;28;20459;-69
2022/02/27 12:26:49;;;;;;;22.00;13.90;;;6.90;99.90;;;;;;5055162;28;20439;-69
2022/02/27 12:29:39;;;;;;;22.10;15.17;;;6.90;99.90;;;;;;5055108;28;20533;-69
2022/02/27 12:32:11;;;;;;;19.87;13.20;;;7.10;99.90;;;;;;5055173;28;20526;-69
2022/02/27 12:34:40;;;;;;;20.20;14.40;;;7.20;99.90;;;;;;5055799;28;20455;-69
2022/02/27 12:37:08;;;;;;;17.40;12.07;;;7.40;99.90;;;;;;5054846;28;20470;-70
2022/02/27 12:39:39;;;;;;;18.13;12.33;;;7.50;99.90;;;;;;5054899;28;20478;-70
2022/02/27 12:42:08;;;;;;;16.37;12.00;;;7.70;99.90;;;;;;5054914;28;20494;-69
2022/02/27 12:44:39;;;;;;;17.87;12.50;;;7.70;99.90;;;;;;5054772;28;20452;-70
2022/02/27 12:47:08;;;;;;;20.27;12.80;;;7.80;99.90;;;;;;5054517;28;20505;-70